createdAt,value
2022-10-10T00:00:34.097Z,12.63
2022-10-10T00:03:02.312Z,13.57
2022-10-10T00:05:30.522Z,13.07
2022-10-10T00:07:58.766Z,10.20
2022-10-10T00:10:27.393Z,11.47
2022-10-10T00:12:55.608Z,10.13
2022-10-10T00:15:23.838Z,9.07
2022-10-10T00:17:53.396Z,11.80
2022-10-10T00:20:21.889Z,8.20
2022-10-10T00:22:50.377Z,9.37
2022-10-10T00:25:18.790Z,9.30
2022-10-10T00:27:46.974Z,7.10
2022-10-10T00:30:15.217Z,7.20
2022-10-10T00:32:43.415Z,6.70
2022-10-10T00:35:13.120Z,6.63
2022-10-10T00:37:41.338Z,9.77
2022-10-10T00:40:10.173Z,5.77
2022-10-10T00:42:38.368Z,4.97
2022-10-10T00:45:27.532Z,4.13
2022-10-10T00:47:57.779Z,6.00
2022-10-10T00:50:27.357Z,4.97
2022-10-10T00:52:55.630Z,6.40
2022-10-10T00:55:23.870Z,5.43
2022-10-10T00:57:52.096Z,4.53
2022-10-10T01:00:20.321Z,5.73
2022-10-10T01:02:48.875Z,4.23
2022-10-10T01:05:17.304Z,5.50
2022-10-10T01:07:46.901Z,3.20
2022-10-10T01:10:16.556Z,3.17
2022-10-10T01:12:51.395Z,3.90
2022-10-10T01:15:21.102Z,3.60
2022-10-10T01:17:50.077Z,3.77
2022-10-10T01:20:33.180Z,2.80
2022-10-10T01:23:11.760Z,4.30
2022-10-10T01:25:42.298Z,2.63
2022-10-10T01:28:12.775Z,6.70
2022-10-10T01:30:42.344Z,2.20
2022-10-10T01:33:10.950Z,2.30
2022-10-10T01:35:42.079Z,4.23
2022-10-10T01:38:12.548Z,1.67
2022-10-10T01:40:42.941Z,4.50
2022-10-10T01:43:11.184Z,3.27
2022-10-10T01:45:39.412Z,4.47
2022-10-10T01:48:09.066Z,1.60
2022-10-10T01:50:37.764Z,2.20
2022-10-10T01:53:09.808Z,3.23
2022-10-10T01:55:44.801Z,2.50
2022-10-10T01:58:17.579Z,1.63
2022-10-10T02:00:47.685Z,2.87
2022-10-10T02:03:18.209Z,1.83
2022-10-10T02:05:47.709Z,2.20
2022-10-10T02:08:17.028Z,2.63
2022-10-10T02:10:45.572Z,1.83
2022-10-10T02:13:13.795Z,1.30
2022-10-10T02:15:42.455Z,1.80
2022-10-10T02:18:10.726Z,2.30
2022-10-10T02:20:44.985Z,1.90
2022-10-10T02:23:13.184Z,1.43
2022-10-10T02:25:41.409Z,1.87
2022-10-10T02:28:10.365Z,2.60
2022-10-10T02:30:40.151Z,1.60
2022-10-10T02:33:08.413Z,2.13
2022-10-10T02:35:37.650Z,2.83
2022-10-10T02:38:08.353Z,2.03
2022-10-10T02:40:36.666Z,1.70
2022-10-10T02:43:05.713Z,2.40
2022-10-10T02:45:33.935Z,2.00
2022-10-10T02:48:02.175Z,1.90
2022-10-10T02:50:30.581Z,1.97
2022-10-10T02:52:58.857Z,1.00
2022-10-10T02:55:28.457Z,3.20
2022-10-10T02:57:56.658Z,1.23
2022-10-10T03:00:24.867Z,1.53
2022-10-10T03:02:53.421Z,4.70
2022-10-10T03:05:21.982Z,1.97
2022-10-10T03:07:50.507Z,1.53
2022-10-10T03:10:18.874Z,3.30
2022-10-10T03:12:48.729Z,1.17
2022-10-10T03:15:17.428Z,1.20
2022-10-10T03:17:46.121Z,1.73
2022-10-10T03:20:14.334Z,1.50
2022-10-10T03:22:42.566Z,1.30
2022-10-10T03:25:10.801Z,1.10
2022-10-10T03:27:39.034Z,1.47
2022-10-10T03:30:09.282Z,1.87
2022-10-10T03:32:37.485Z,1.97
2022-10-10T03:35:05.934Z,3.30
2022-10-10T03:37:34.185Z,3.07
2022-10-10T03:40:02.412Z,1.67
2022-10-10T03:42:30.635Z,1.80
2022-10-10T03:44:58.869Z,1.10
2022-10-10T03:47:28.463Z,2.53
2022-10-10T03:49:56.655Z,3.30
2022-10-10T03:52:24.979Z,1.40
2022-10-10T03:54:53.197Z,2.30
2022-10-10T03:57:21.439Z,1.23
2022-10-10T03:59:49.635Z,1.40
2022-10-10T04:02:17.886Z,1.37
2022-10-10T04:04:47.465Z,2.50
2022-10-10T04:07:15.685Z,4.27
2022-10-10T04:09:43.928Z,1.67
2022-10-10T04:12:12.135Z,0.83
2022-10-10T04:14:40.364Z,2.97
2022-10-10T04:17:08.814Z,1.33
2022-10-10T04:19:37.098Z,1.20
2022-10-10T04:22:10.312Z,1.20
2022-10-10T04:24:39.279Z,0.87
2022-10-10T04:27:07.490Z,1.40
2022-10-10T04:29:35.708Z,2.00
2022-10-10T04:32:03.944Z,2.00
2022-10-10T04:34:33.385Z,0.80
2022-10-10T04:37:01.701Z,1.37
2022-10-10T04:39:31.257Z,1.17
2022-10-10T04:41:59.526Z,2.60
2022-10-10T04:44:27.793Z,1.90
2022-10-10T04:46:56.039Z,2.37
2022-10-10T04:49:24.333Z,2.30
2022-10-10T04:51:52.565Z,4.47
2022-10-10T04:54:20.752Z,4.17
2022-10-10T04:56:50.306Z,4.63
2022-10-10T04:59:18.512Z,6.20
2022-10-10T05:01:46.748Z,6.37
2022-10-10T05:04:15.007Z,5.17
2022-10-10T05:06:43.287Z,6.07
2022-10-10T05:09:11.540Z,6.27
2022-10-10T05:11:39.876Z,6.20
2022-10-10T05:14:09.632Z,6.27
2022-10-10T05:16:37.844Z,8.87
2022-10-10T05:19:06.118Z,9.00
2022-10-10T05:21:38.130Z,9.37
2022-10-10T05:24:06.466Z,9.70
2022-10-10T05:26:34.644Z,12.73
2022-10-10T05:29:02.999Z,11.57
2022-10-10T05:31:32.600Z,12.37
2022-10-10T05:34:00.917Z,11.33
2022-10-10T05:36:29.272Z,9.47
2022-10-10T05:38:57.686Z,12.40
2022-10-10T05:41:25.859Z,9.10
2022-10-10T05:43:54.074Z,13.67
2022-10-10T05:46:24.593Z,10.73
2022-10-10T05:48:54.362Z,13.03
2022-10-10T05:51:22.662Z,9.87
2022-10-10T05:53:50.910Z,13.37
2022-10-10T05:56:19.149Z,9.60
2022-10-10T05:58:47.337Z,8.07
2022-10-10T06:01:15.619Z,8.20
2022-10-10T06:03:43.828Z,11.60
2022-10-10T06:06:13.534Z,8.70
2022-10-10T06:08:41.766Z,18.50
2022-10-10T06:11:11.039Z,10.17
2022-10-10T06:13:39.301Z,7.80
2022-10-10T06:16:07.638Z,8.97
2022-10-10T06:18:36.543Z,10.50
2022-10-10T06:21:06.465Z,7.57
2022-10-10T06:23:36.065Z,11.07
2022-10-10T06:26:04.358Z,8.70
2022-10-10T06:28:34.553Z,9.63
2022-10-10T06:31:03.133Z,10.63
2022-10-10T06:33:31.373Z,9.30
2022-10-10T06:35:59.632Z,7.43
2022-10-10T06:38:28.588Z,9.93
2022-10-10T06:41:00.506Z,9.57
2022-10-10T06:43:28.923Z,6.97
2022-10-10T06:45:57.200Z,12.37
2022-10-10T06:48:26.614Z,9.37
2022-10-10T06:50:58.469Z,8.37
2022-10-10T06:53:27.001Z,7.57
2022-10-10T06:55:55.779Z,8.40
2022-10-10T06:58:25.483Z,9.83
2022-10-10T07:00:53.970Z,9.57
2022-10-10T07:03:22.368Z,9.23
2022-10-10T07:05:51.558Z,7.63
2022-10-10T07:08:20.111Z,7.47
2022-10-10T07:10:48.397Z,7.23
2022-10-10T07:13:16.715Z,5.87
2022-10-10T07:15:46.293Z,7.67
2022-10-10T07:18:14.563Z,9.47
2022-10-10T07:20:42.815Z,5.03
2022-10-10T07:23:11.080Z,5.73
2022-10-10T07:25:40.463Z,6.77
2022-10-10T07:28:08.846Z,6.90
2022-10-10T07:30:40.781Z,5.60
2022-10-10T07:33:10.492Z,7.03
2022-10-10T07:35:38.811Z,5.17
2022-10-10T07:38:07.022Z,5.20
2022-10-10T07:40:35.254Z,6.60
2022-10-10T07:43:03.454Z,8.40
2022-10-10T07:45:31.704Z,4.57
2022-10-10T07:47:59.969Z,4.17
2022-10-10T07:50:29.585Z,4.77
2022-10-10T07:52:57.796Z,4.20
2022-10-10T07:55:26.125Z,4.37
2022-10-10T07:57:54.813Z,3.23
2022-10-10T08:00:23.307Z,6.80
2022-10-10T08:02:52.255Z,3.77
2022-10-10T08:05:20.491Z,3.27
2022-10-10T08:07:50.435Z,4.27
2022-10-10T08:10:19.056Z,3.80
2022-10-10T08:12:47.377Z,4.63
2022-10-10T08:15:15.603Z,3.40
2022-10-10T08:17:43.970Z,3.30
2022-10-10T08:20:12.513Z,5.27
2022-10-10T08:22:40.720Z,3.63
2022-10-10T08:25:10.606Z,4.90
2022-10-10T08:27:38.976Z,2.10
2022-10-10T08:30:07.790Z,7.27
2022-10-10T08:32:35.994Z,5.67
2022-10-10T08:35:05.213Z,6.10
2022-10-10T08:37:37.242Z,7.37
2022-10-10T08:40:06.331Z,7.87
2022-10-10T08:42:43.713Z,5.23
2022-10-10T08:45:16.095Z,7.60
2022-10-10T08:47:46.868Z,5.20
2022-10-10T08:50:16.630Z,12.53
2022-10-10T08:52:45.398Z,12.57
2022-10-10T08:55:15.659Z,5.73
2022-10-10T08:57:50.105Z,3.73
2022-10-10T09:00:18.894Z,7.07
2022-10-10T09:02:54.055Z,5.10
2022-10-10T09:05:23.364Z,7.57
2022-10-10T09:08:02.046Z,6.33
2022-10-10T09:10:31.374Z,7.03
2022-10-10T09:13:02.542Z,6.87
2022-10-10T09:15:31.268Z,11.00
2022-10-10T09:18:01.905Z,5.90
2022-10-10T09:20:34.175Z,6.60
2022-10-10T09:23:02.879Z,9.03
2022-10-10T09:25:32.450Z,7.13
2022-10-10T09:28:03.233Z,8.10
2022-10-10T09:30:31.668Z,7.93
2022-10-10T09:33:00.842Z,7.17
2022-10-10T09:35:30.097Z,4.13
2022-10-10T09:37:59.322Z,4.87
2022-10-10T09:40:28.196Z,6.63
2022-10-10T09:42:56.414Z,4.63
2022-10-10T09:45:27.136Z,6.77
2022-10-10T09:47:56.021Z,3.13
2022-10-10T09:50:24.279Z,7.50
2022-10-10T09:52:52.545Z,3.30
2022-10-10T09:55:23.239Z,12.13
2022-10-10T09:57:52.773Z,3.67
2022-10-10T10:00:29.753Z,4.80
2022-10-10T10:03:14.313Z,4.07
2022-10-10T10:05:43.176Z,6.03
2022-10-10T10:08:28.465Z,5.83
2022-10-10T10:11:00.486Z,1.53
2022-10-10T10:13:30.368Z,4.63
2022-10-10T10:16:04.173Z,4.77
2022-10-10T10:18:34.139Z,3.50
2022-10-10T10:21:20.388Z,8.17
2022-10-10T10:23:54.712Z,4.13
2022-10-10T10:26:27.354Z,4.20
2022-10-10T10:28:56.107Z,3.53
2022-10-10T10:31:30.410Z,7.30
2022-10-10T10:34:02.358Z,6.53
2022-10-10T10:36:33.205Z,2.03
2022-10-10T10:39:02.810Z,3.40
2022-10-10T10:41:34.476Z,2.43
2022-10-10T10:44:07.959Z,3.10
2022-10-10T10:46:41.133Z,3.53
2022-10-10T10:49:11.117Z,5.17
2022-10-10T10:51:45.144Z,2.27
2022-10-10T10:54:18.684Z,1.97
2022-10-10T10:56:48.576Z,2.33
2022-10-10T11:00:16.556Z,2.03
2022-10-10T11:02:43.511Z,2.93
2022-10-10T11:05:36.764Z,3.03
2022-10-10T11:08:22.400Z,4.87
2022-10-10T11:10:53.180Z,3.27
2022-10-10T11:13:22.403Z,3.50
2022-10-10T11:16:10.807Z,2.10
2022-10-10T11:18:43.273Z,2.60
2022-10-10T11:21:13.322Z,2.23
2022-10-10T11:23:42.078Z,3.47
2022-10-10T11:26:12.093Z,1.80
2022-10-10T11:28:42.458Z,2.77
2022-10-10T11:31:12.593Z,2.97
2022-10-10T11:33:42.497Z,4.10
2022-10-10T11:36:12.543Z,2.57
2022-10-10T11:38:41.569Z,3.50
2022-10-10T11:41:10.220Z,4.30
2022-10-10T11:43:41.106Z,6.13
2022-10-10T11:46:14.596Z,4.00
2022-10-10T11:48:46.151Z,4.50
2022-10-10T11:51:16.970Z,9.30
2022-10-10T11:53:45.371Z,6.40
2022-10-10T11:56:14.996Z,4.33
2022-10-10T11:58:44.169Z,4.93
2022-10-10T12:01:14.515Z,7.60
2022-10-10T12:03:42.793Z,7.03
2022-10-10T12:06:14.842Z,7.07
2022-10-10T12:08:44.283Z,3.60
2022-10-10T12:11:16.612Z,4.50
2022-10-10T12:13:44.941Z,7.53
2022-10-10T12:16:13.535Z,3.70
2022-10-10T12:18:42.691Z,6.33
2022-10-10T12:21:11.228Z,5.97
2022-10-10T12:23:43.332Z,5.97
2022-10-10T12:26:15.379Z,4.10
2022-10-10T12:28:58.546Z,6.43
2022-10-10T12:31:30.386Z,4.33
2022-10-10T12:34:18.138Z,6.67
2022-10-10T12:36:56.978Z,5.33
2022-10-10T12:39:39.251Z,9.27
2022-10-10T12:42:22.368Z,5.77
2022-10-10T12:44:50.620Z,5.40
2022-10-10T12:47:35.899Z,6.00
2022-10-10T12:50:23.733Z,4.43
2022-10-10T12:52:53.005Z,4.87
2022-10-10T12:55:23.093Z,5.30
2022-10-10T12:57:51.404Z,6.10
2022-10-10T13:00:20.212Z,4.33
2022-10-10T13:02:49.414Z,9.57
2022-10-10T13:05:19.363Z,4.33
2022-10-10T13:07:47.573Z,4.87
2022-10-10T13:10:23.672Z,5.17
2022-10-10T13:13:01.327Z,4.10
2022-10-10T13:15:29.612Z,5.20
2022-10-10T13:18:00.656Z,3.50
2022-10-10T13:20:31.709Z,2.93
2022-10-10T13:23:02.399Z,3.53
2022-10-10T13:25:31.968Z,2.93
2022-10-10T13:28:00.678Z,2.07
2022-10-10T13:30:29.930Z,3.33
2022-10-10T13:32:58.249Z,2.97
2022-10-10T13:35:27.241Z,3.20
2022-10-10T13:37:56.454Z,3.43
2022-10-10T13:40:24.725Z,3.23
2022-10-10T13:42:54.339Z,2.90
2022-10-10T13:45:37.537Z,4.03
2022-10-10T13:48:18.793Z,5.03
2022-10-10T13:50:57.009Z,3.30
2022-10-10T13:53:26.049Z,2.47
2022-10-10T13:56:00.341Z,5.80
2022-10-10T13:58:30.943Z,3.03
2022-10-10T14:00:59.558Z,5.07
2022-10-10T14:03:28.967Z,3.50
2022-10-10T14:05:57.231Z,4.00
2022-10-10T14:08:26.791Z,9.00
2022-10-10T14:10:59.220Z,7.43
2022-10-10T14:13:27.805Z,5.20
2022-10-10T14:15:57.391Z,4.20
2022-10-10T14:18:26.028Z,6.00
2022-10-10T14:20:55.507Z,6.00
2022-10-10T14:23:23.771Z,4.77
2022-10-10T14:25:51.958Z,7.67
2022-10-10T14:28:20.919Z,6.03
2022-10-10T14:30:49.228Z,4.30
2022-10-10T14:33:19.159Z,5.50
2022-10-10T14:35:49.663Z,5.40
2022-10-10T14:38:17.964Z,5.13
2022-10-10T14:40:46.577Z,5.83
2022-10-10T14:43:15.149Z,7.37
2022-10-10T14:45:43.415Z,4.63
2022-10-10T14:48:11.940Z,7.03
2022-10-10T14:50:43.957Z,9.40
2022-10-10T14:53:12.204Z,6.23
2022-10-10T14:55:43.346Z,7.03
2022-10-10T14:58:13.188Z,3.87
2022-10-10T15:00:41.816Z,6.57
2022-10-10T15:03:10.167Z,4.97
2022-10-10T15:05:38.429Z,7.40
2022-10-10T15:08:08.169Z,4.70
2022-10-10T15:10:36.496Z,4.40
2022-10-10T15:13:04.825Z,6.73
2022-10-10T15:15:33.130Z,5.10
2022-10-10T15:18:01.394Z,6.23
2022-10-10T15:20:31.746Z,7.17
2022-10-10T15:23:00.126Z,4.63
2022-10-10T15:25:33.634Z,4.07
2022-10-10T15:28:02.507Z,3.63
2022-10-10T15:30:30.789Z,4.17
2022-10-10T15:32:59.438Z,5.37
2022-10-10T15:35:40.007Z,5.40
2022-10-10T15:38:15.860Z,6.13
2022-10-10T15:40:45.492Z,5.43
2022-10-10T15:43:15.911Z,3.53
2022-10-10T15:45:55.576Z,8.37
2022-10-10T15:48:24.483Z,3.80
2022-10-10T15:50:53.229Z,3.63
2022-10-10T15:53:21.479Z,3.37
2022-10-10T15:55:51.045Z,2.03
2022-10-10T15:58:19.251Z,2.00
2022-10-10T16:00:47.529Z,4.90
2022-10-10T16:03:15.802Z,2.70
2022-10-10T16:05:45.191Z,1.70
2022-10-10T16:08:13.488Z,7.43
2022-10-10T16:10:43.644Z,5.13
2022-10-10T16:13:13.267Z,4.50
2022-10-10T16:15:41.530Z,2.37
2022-10-10T16:18:09.780Z,4.40
2022-10-10T16:20:39.899Z,1.97
2022-10-10T16:23:08.344Z,3.33
2022-10-10T16:25:36.829Z,2.50
2022-10-10T16:28:05.243Z,3.63
2022-10-10T16:30:34.881Z,1.90
2022-10-10T16:33:03.095Z,4.27
2022-10-10T16:35:37.068Z,3.37
2022-10-10T16:38:05.366Z,1.37
2022-10-10T16:40:34.937Z,2.67
2022-10-10T16:43:03.265Z,2.30
2022-10-10T16:45:31.517Z,1.80
2022-10-10T16:48:01.275Z,5.73
2022-10-10T16:50:29.884Z,1.93
2022-10-10T16:52:58.352Z,2.40
2022-10-10T16:55:26.686Z,16.27
2022-10-10T16:57:58.733Z,8.43
2022-10-10T17:00:26.986Z,2.17
2022-10-10T17:02:55.181Z,4.40
2022-10-10T17:05:24.993Z,4.27
2022-10-10T17:07:53.233Z,1.77
2022-10-10T17:10:21.429Z,2.20
2022-10-10T17:12:49.682Z,7.77
2022-10-10T17:15:17.890Z,2.63
2022-10-10T17:17:46.130Z,5.93
2022-10-10T17:20:14.383Z,3.53
2022-10-10T17:22:44.003Z,4.63
2022-10-10T17:25:12.221Z,5.33
2022-10-10T17:27:42.188Z,2.37
2022-10-10T17:30:12.637Z,2.83
2022-10-10T17:32:42.061Z,5.17
2022-10-10T17:35:11.698Z,4.30
2022-10-10T17:37:40.331Z,6.27
2022-10-10T17:40:10.638Z,16.87
2022-10-10T17:42:38.870Z,21.73
2022-10-10T17:45:07.450Z,31.77
2022-10-10T17:47:35.695Z,23.70
2022-10-10T17:50:03.902Z,42.90
2022-10-10T17:52:32.108Z,28.87
2022-10-10T17:55:00.536Z,47.37
2022-10-10T17:57:30.395Z,34.17
2022-10-10T18:00:00.012Z,26.23
2022-10-10T18:02:28.565Z,26.03
2022-10-10T18:04:58.300Z,19.57
2022-10-10T18:07:26.530Z,34.47
2022-10-10T18:09:54.770Z,33.57
2022-10-10T18:12:23.197Z,23.87
2022-10-10T18:14:53.257Z,23.97
2022-10-10T18:17:21.670Z,30.13
2022-10-10T18:19:49.927Z,24.90
2022-10-10T18:22:18.116Z,22.57
2022-10-10T18:24:46.595Z,22.27
2022-10-10T18:27:14.832Z,29.90
2022-10-10T18:29:43.385Z,27.57
2022-10-10T18:32:13.013Z,27.03
2022-10-10T18:34:41.494Z,26.13
2022-10-10T18:37:10.151Z,31.67
2022-10-10T18:39:38.443Z,25.23
2022-10-10T18:42:06.886Z,22.90
2022-10-10T18:44:35.134Z,24.27
2022-10-10T18:47:03.397Z,19.80
2022-10-10T18:49:33.023Z,20.93
2022-10-10T18:52:01.272Z,23.20
2022-10-10T18:54:30.660Z,29.50
2022-10-10T18:56:58.873Z,25.63
2022-10-10T18:59:27.106Z,25.13
2022-10-10T19:01:55.646Z,23.60
2022-10-10T19:04:25.118Z,27.93
2022-10-10T19:06:57.594Z,23.60
2022-10-10T19:09:26.778Z,19.47
2022-10-10T19:11:55.238Z,23.17
2022-10-10T19:14:23.487Z,22.27
2022-10-10T19:16:51.906Z,23.47
2022-10-10T19:19:20.390Z,19.53
2022-10-10T19:21:48.823Z,22.83
2022-10-10T19:24:20.962Z,16.93
2022-10-10T19:26:52.070Z,21.70
2022-10-10T19:29:20.825Z,19.00
2022-10-10T19:31:49.262Z,23.80
2022-10-10T19:34:17.631Z,12.97
2022-10-10T19:36:45.914Z,20.53
2022-10-10T19:39:14.200Z,16.20
2022-10-10T19:41:44.120Z,17.23
2022-10-10T19:44:12.405Z,18.07
2022-10-10T19:46:40.791Z,17.27
2022-10-10T19:49:09.035Z,15.50
2022-10-10T19:51:37.344Z,20.10
2022-10-10T19:54:05.740Z,15.67
2022-10-10T19:56:33.998Z,15.10
2022-10-10T19:59:04.507Z,16.43
2022-10-10T20:01:32.832Z,14.17
2022-10-10T20:04:01.149Z,18.93
2022-10-10T20:06:29.544Z,19.17
2022-10-10T20:08:57.999Z,13.97
2022-10-10T20:11:28.002Z,16.27
2022-10-10T20:13:57.421Z,18.20
2022-10-10T20:16:27.576Z,19.63
2022-10-10T20:18:56.305Z,17.37
2022-10-10T20:21:25.607Z,15.60
2022-10-10T20:23:54.533Z,15.63
2022-10-10T20:26:23.284Z,15.53
2022-10-10T20:28:51.766Z,18.13
2022-10-10T20:31:20.675Z,14.73
2022-10-10T20:33:50.322Z,14.97
2022-10-10T20:36:18.683Z,18.37
2022-10-10T20:38:46.960Z,19.37
2022-10-10T20:41:16.210Z,18.97
2022-10-10T20:43:44.445Z,18.33
2022-10-10T20:46:13.010Z,15.80
2022-10-10T20:48:41.354Z,21.17
2022-10-10T20:51:11.380Z,21.93
2022-10-10T20:53:41.683Z,17.93
2022-10-10T20:56:10.478Z,19.37
2022-10-10T20:58:39.105Z,15.37
2022-10-10T21:01:08.335Z,20.70
2022-10-10T21:03:36.681Z,21.23
2022-10-10T21:06:08.789Z,22.23
2022-10-10T21:08:38.771Z,17.13
2022-10-10T21:11:07.727Z,20.63
2022-10-10T21:13:36.043Z,20.00
2022-10-10T21:16:04.402Z,18.50
2022-10-10T21:18:33.181Z,17.40
2022-10-10T21:21:01.467Z,18.57
2022-10-10T21:23:30.118Z,19.20
2022-10-10T21:25:59.998Z,17.10
2022-10-10T21:28:28.365Z,15.00
2022-10-10T21:30:56.913Z,14.00
2022-10-10T21:33:25.278Z,18.37
2022-10-10T21:35:53.715Z,16.33
2022-10-10T21:38:21.940Z,19.20
2022-10-10T21:40:50.258Z,15.57
2022-10-10T21:43:19.838Z,16.47
2022-10-10T21:45:48.076Z,19.50
2022-10-10T21:48:16.300Z,18.37
2022-10-10T21:50:44.523Z,19.33
2022-10-10T21:53:13.310Z,19.97
2022-10-10T21:55:41.528Z,15.40
2022-10-10T21:58:10.019Z,17.00
2022-10-10T22:00:39.732Z,17.83
2022-10-10T22:03:08.155Z,21.70
2022-10-10T22:05:36.449Z,22.63
2022-10-10T22:08:04.662Z,17.33
2022-10-10T22:10:34.217Z,16.60
2022-10-10T22:13:02.653Z,18.47
2022-10-10T22:15:31.168Z,17.37
2022-10-10T22:18:00.748Z,24.10
2022-10-10T22:20:28.955Z,24.00
2022-10-10T22:22:57.302Z,21.33
2022-10-10T22:25:25.513Z,21.13
2022-10-10T22:27:57.130Z,19.33
2022-10-10T22:30:25.647Z,26.27
2022-10-10T22:32:53.930Z,21.77
2022-10-10T22:35:25.589Z,26.00
2022-10-10T22:37:53.951Z,22.70
2022-10-10T22:40:23.346Z,28.70
2022-10-10T22:42:51.541Z,28.03
2022-10-10T22:45:19.908Z,26.07
2022-10-10T22:47:48.076Z,26.40
2022-10-10T22:50:16.345Z,28.40
2022-10-10T22:52:45.899Z,24.93
2022-10-10T22:55:18.250Z,28.30
2022-10-10T22:57:47.056Z,29.73
2022-10-10T23:00:15.917Z,30.53
2022-10-10T23:02:44.286Z,29.60
2022-10-10T23:05:12.553Z,29.07
2022-10-10T23:07:40.771Z,34.23
2022-10-10T23:10:11.184Z,28.57
2022-10-10T23:12:39.389Z,37.27
2022-10-10T23:15:08.033Z,32.43
2022-10-10T23:17:36.488Z,32.53
2022-10-10T23:20:04.891Z,32.23
2022-10-10T23:22:33.140Z,34.67
2022-10-10T23:25:01.340Z,40.40
2022-10-10T23:27:30.994Z,41.07
2022-10-10T23:29:59.310Z,38.47
2022-10-10T23:32:29.427Z,43.10
2022-10-10T23:34:57.698Z,34.97
2022-10-10T23:37:27.721Z,40.53
2022-10-10T23:39:56.012Z,37.97
2022-10-10T23:42:25.843Z,38.93
2022-10-10T23:44:55.532Z,41.60
2022-10-10T23:47:23.883Z,41.00
2022-10-10T23:49:52.145Z,36.50
2022-10-10T23:52:20.349Z,38.70
2022-10-10T23:54:48.584Z,39.30
2022-10-10T23:57:16.893Z,40.37
2022-10-10T23:59:45.164Z,43.43
